Time;durP1;ratioP1;P1;durP2;ratioP2;P2;SDS_P1;SDS_P2;PMS_P1;PMS_P2;Temp;Humidity;BMP_temperature;BMP_pressure;BME280_temperature;BME280_humidity;BME280_pressure;Samples;Min_cycle;Max_cycle;Signal;HPM_P1;HPM_P2
2023/06/25 00:03:07;;;;;;;3.35;1.75;;;;;;;17.37;100.00;98970.25;15279875;19;20085;-49
2023/06/25 00:08:32;;;;;;;2.30;2.10;;;;;;;17.31;100.00;98965.53;15276588;19;20496;-49
2023/06/25 00:13:59;;;;;;;2.63;1.80;;;;;;;17.27;100.00;98966.13;15278340;19;20006;-48
2023/06/25 00:19:25;;;;;;;3.22;2.00;;;;;;;17.17;100.00;98970.00;15273250;19;20026;-54
2023/06/25 00:24:49;;;;;;;2.00;1.80;;;;;;;17.07;100.00;98964.00;15279789;19;20017;-52
2023/06/25 00:30:25;;;;;;;1.92;1.70;;;;;;;17.01;100.00;98964.75;15276469;19;20486;-52
2023/06/25 00:36:06;;;;;;;1.83;1.70;;;;;;;16.96;100.00;98961.78;15280133;19;20014;-51
2023/06/25 00:41:30;;;;;;;2.50;1.77;;;;;;;16.92;100.00;98966.72;15278776;19;20010;-49
2023/06/25 00:46:59;;;;;;;2.03;1.83;;;;;;;16.86;100.00;98965.59;15274549;19;20291;-54
2023/06/25 00:52:25;;;;;;;2.90;2.03;;;;;;;16.81;100.00;98961.75;15277405;19;20038;-49
2023/06/25 00:57:51;;;;;;;3.47;1.85;;;;;;;16.72;100.00;98961.00;15277122;19;20022;-49
2023/06/25 01:03:26;;;;;;;2.90;1.90;;;;;;;16.63;100.00;98958.38;15278271;19;20034;-51
2023/06/25 01:08:53;;;;;;;2.60;2.08;;;;;;;16.56;100.00;98952.00;15273195;19;20015;-52
2023/06/25 01:14:17;;;;;;;3.00;2.10;;;;;;;16.48;100.00;98954.81;15273543;19;20018;-52
2023/06/25 01:19:46;;;;;;;2.17;1.80;;;;;;;16.41;100.00;98951.97;15269257;19;20089;-51
2023/06/25 01:25:14;;;;;;;2.50;1.98;;;;;;;16.34;100.00;98959.22;15275348;19;20070;-49
2023/06/25 01:30:47;;;;;;;2.70;2.13;;;;;;;16.23;100.00;98946.91;15269220;19;20015;-53
2023/06/25 01:36:12;;;;;;;2.72;2.10;;;;;;;16.14;100.00;98942.56;15273322;19;20025;-51
2023/06/25 01:41:40;;;;;;;3.45;2.13;;;;;;;16.08;100.00;98936.00;15276740;19;20018;-52
2023/06/25 01:47:07;;;;;;;2.97;2.15;;;;;;;16.06;100.00;98940.78;15274841;19;20023;-53
2023/06/25 01:52:32;;;;;;;2.20;1.90;;;;;;;16.05;100.00;98932.81;15272688;19;20015;-51
2023/06/25 01:58:00;;;;;;;2.35;2.15;;;;;;;16.02;100.00;98934.88;15273188;19;20019;-51
2023/06/25 02:03:25;;;;;;;6.22;2.20;;;;;;;15.99;100.00;98928.97;15271444;19;20010;-52
2023/06/25 02:08:50;;;;;;;2.10;1.90;;;;;;;15.95;100.00;98920.31;15271534;19;20018;-49
2023/06/25 02:14:19;;;;;;;2.63;2.03;;;;;;;15.92;100.00;98922.56;15272623;19;20026;-51
2023/06/25 02:19:44;;;;;;;2.53;2.00;;;;;;;15.87;100.00;98920.38;15266605;19;20530;-51
2023/06/25 02:25:10;;;;;;;2.08;1.88;;;;;;;15.83;100.00;98908.16;15269396;19;20014;-50
2023/06/25 02:30:37;;;;;;;2.35;1.88;;;;;;;15.77;100.00;98908.91;15269807;19;20007;-49
2023/06/25 02:36:02;;;;;;;2.47;1.90;;;;;;;15.72;100.00;98913.00;15274623;19;20070;-49
2023/06/25 02:41:27;;;;;;;3.20;2.20;;;;;;;15.68;100.00;98917.13;15272153;19;20017;-50
2023/06/25 02:46:55;;;;;;;2.70;1.92;;;;;;;15.64;100.00;98913.09;15270404;19;20018;-49
2023/06/25 02:52:19;;;;;;;2.72;2.10;;;;;;;15.59;100.00;98912.75;15270013;19;20038;-52
2023/06/25 02:57:44;;;;;;;2.60;2.10;;;;;;;15.49;100.00;98915.75;15269924;19;20013;-50
2023/06/25 03:03:11;;;;;;;2.20;2.00;;;;;;;15.41;100.00;98910.34;15273001;19;20081;-50
2023/06/25 03:08:37;;;;;;;4.15;2.00;;;;;;;15.37;100.00;98907.16;15272012;19;20495;-51
2023/06/25 03:14:01;;;;;;;7.03;2.45;;;;;;;15.36;100.00;98900.03;15269353;19;20042;-48
2023/06/25 03:19:38;;;;;;;2.65;2.45;;;;;;;15.36;100.00;98902.75;15267037;19;20014;-48
2023/06/25 03:25:03;;;;;;;2.30;2.10;;;;;;;15.32;100.00;98890.59;15269558;19;20064;-51
2023/06/25 03:30:34;;;;;;;2.50;2.05;;;;;;;15.28;100.00;98894.66;15263490;19;20022;-49
2023/06/25 03:36:03;;;;;;;3.65;2.22;;;;;;;15.29;100.00;98906.41;15284365;19;20038;-54
2023/06/25 03:41:28;;;;;;;2.40;2.20;;;;;;;15.23;100.00;98897.94;15283864;19;20014;-51
2023/06/25 03:46:54;;;;;;;3.78;2.55;;;;;;;15.22;100.00;98908.97;15281538;19;20030;-48
2023/06/25 03:52:22;;;;;;;3.85;2.28;;;;;;;15.21;100.00;98910.00;15281069;19;20019;-48
2023/06/25 03:57:46;;;;;;;3.05;2.13;;;;;;;15.20;100.00;98900.16;15280672;19;20025;-50
2023/06/25 04:03:12;;;;;;;3.90;2.47;;;;;;;15.18;100.00;98907.63;15279720;19;20090;-52
2023/06/25 04:08:42;;;;;;;3.63;2.20;;;;;;;15.20;100.00;98909.13;15281117;19;20081;-48
2023/06/25 04:14:06;;;;;;;4.18;2.42;;;;;;;15.17;100.00;98897.81;15281544;19;20420;-47
2023/06/25 04:19:31;;;;;;;2.55;2.17;;;;;;;15.20;100.00;98909.13;15278754;19;20397;-52
2023/06/25 04:24:59;;;;;;;3.50;2.40;;;;;;;15.24;100.00;98906.91;15279633;19;20074;-49
2023/06/25 04:30:32;;;;;;;2.58;2.38;;;;;;;15.29;100.00;98904.50;15274115;19;20015;-47
2023/06/25 04:35:57;;;;;;;3.25;2.60;;;;;;;15.36;100.00;98894.59;15276201;19;20014;-48
2023/06/25 04:41:26;;;;;;;3.40;2.50;;;;;;;15.44;100.00;98901.03;15278596;19;20018;-52
2023/06/25 04:46:50;;;;;;;2.47;2.28;;;;;;;15.51;100.00;98896.53;15277784;19;20353;-50
2023/06/25 04:52:18;;;;;;;2.70;2.42;;;;;;;15.59;100.00;98891.03;15277786;19;20086;-51
2023/06/25 04:57:46;;;;;;;2.83;2.60;;;;;;;15.70;100.00;98897.91;15278751;19;20041;-50
2023/06/25 05:03:12;;;;;;;3.95;2.58;;;;;;;15.77;100.00;98896.16;15277954;19;20011;-48
2023/06/25 05:08:37;;;;;;;2.55;2.30;;;;;;;15.86;100.00;98899.69;15273014;19;20014;-50
2023/06/25 05:14:04;;;;;;;4.75;2.17;;;;;;;15.98;100.00;98900.09;15278977;19;20015;-48
2023/06/25 05:19:28;;;;;;;4.03;2.30;;;;;;;16.09;100.00;98894.22;15274847;19;20379;-50
2023/06/25 05:24:54;;;;;;;2.90;2.40;;;;;;;16.19;100.00;98896.63;15276193;19;20019;-55
2023/06/25 05:30:29;;;;;;;3.10;2.38;;;;;;;16.30;100.00;98892.63;15272763;19;20081;-49
2023/06/25 05:35:53;;;;;;;4.35;2.50;;;;;;;16.41;100.00;98899.44;15272446;19;20531;-50
2023/06/25 05:41:18;;;;;;;2.90;2.60;;;;;;;16.54;100.00;98901.53;15272101;19;20023;-48
2023/06/25 05:46:45;;;;;;;4.15;2.55;;;;;;;16.67;100.00;98893.56;15275837;19;20014;-49
2023/06/25 05:52:10;;;;;;;4.85;2.30;;;;;;;16.85;100.00;98886.84;15271606;19;20022;-62
2023/06/25 05:57:35;;;;;;;3.03;2.20;;;;;;;17.09;100.00;98880.28;15274763;19;20022;-52
2023/06/25 06:03:03;;;;;;;5.10;2.67;;;;;;;17.31;100.00;98875.66;15273805;19;20013;-55
2023/06/25 06:08:28;;;;;;;2.45;2.22;;;;;;;17.46;100.00;98872.06;15278253;19;20022;-55
2023/06/25 06:13:53;;;;;;;3.35;2.33;;;;;;;17.58;100.00;98866.94;15274305;19;20038;-55
2023/06/25 06:19:20;;;;;;;2.33;2.10;;;;;;;17.70;100.00;98868.06;15278551;19;20626;-54
2023/06/25 06:24:46;;;;;;;3.33;2.35;;;;;;;17.92;100.00;98870.78;15277251;19;20445;-54
2023/06/25 06:30:19;;;;;;;4.38;2.42;;;;;;;18.07;100.00;98855.16;15275516;19;20022;-53
2023/06/25 06:35:46;;;;;;;4.00;2.28;;;;;;;18.25;100.00;98851.09;15275778;19;20032;-52
2023/06/25 06:41:11;;;;;;;2.25;1.88;;;;;;;18.41;100.00;98855.38;14761178;19;10000406;-55
2023/06/25 06:46:36;;;;;;;2.78;1.90;;;;;;;18.59;100.00;98854.84;15272920;19;20368;-57
2023/06/25 06:52:03;;;;;;;2.42;1.90;;;;;;;18.74;100.00;98852.81;15273618;19;20018;-57
2023/06/25 06:57:27;;;;;;;2.45;1.80;;;;;;;18.91;100.00;98855.16;15274838;19;20014;-56
2023/06/25 07:02:57;;;;;;;2.08;1.80;;;;;;;19.14;100.00;98854.00;15276107;19;20077;-55
2023/06/25 07:08:24;;;;;;;2.13;1.90;;;;;;;19.33;100.00;98846.91;15273177;19;20482;-52
2023/06/25 07:13:50;;;;;;;1.92;1.67;;;;;;;19.54;100.00;98846.72;15269464;19;20024;-54
2023/06/25 07:19:15;;;;;;;2.33;1.70;;;;;;;19.70;100.00;98842.72;15274053;19;20039;-56
2023/06/25 07:24:42;;;;;;;1.70;1.60;;;;;;;19.86;100.00;98840.66;15272913;19;20022;-52
2023/06/25 07:30:15;;;;;;;1.63;1.50;;;;;;;20.02;100.00;98832.03;15270238;19;20021;-54
2023/06/25 07:35:40;;;;;;;1.48;1.38;;;;;;;20.24;100.00;98836.38;15272290;19;20023;-55
2023/06/25 07:41:08;;;;;;;1.40;1.30;;;;;;;20.46;100.00;98831.47;15264555;19;20015;-56
2023/06/25 07:46:33;;;;;;;1.65;1.30;;;;;;;20.67;100.00;98830.34;15265246;19;20082;-55
2023/06/25 07:51:59;;;;;;;1.73;1.30;;;;;;;20.85;100.00;98832.41;15265100;19;20041;-56
2023/06/25 07:57:26;;;;;;;2.35;1.40;;;;;;;21.05;100.00;98829.53;15267274;19;20088;-55
2023/06/25 08:02:51;;;;;;;2.88;1.25;;;;;;;21.25;100.00;98815.72;15268124;19;20036;-53
2023/06/25 08:08:17;;;;;;;3.13;1.20;;;;;;;21.50;100.00;98814.91;15268738;19;20018;-49
2023/06/25 08:13:44;;;;;;;1.23;1.13;;;;;;;21.69;100.00;98812.28;15267576;19;20355;-48
2023/06/25 08:19:08;;;;;;;2.33;1.27;;;;;;;21.85;100.00;98819.91;15269161;19;20019;-55
2023/06/25 08:24:33;;;;;;;1.27;1.17;;;;;;;22.00;100.00;98813.25;15280184;19;20082;-50
2023/06/25 08:30:00;;;;;;;1.25;1.10;;;;;;;22.15;100.00;98810.97;15276945;19;20021;-53
2023/06/25 08:35:25;;;;;;;2.05;1.30;;;;;;;22.37;100.00;98809.66;15280244;19;20022;-45
2023/06/25 08:40:51;;;;;;;1.50;1.30;;;;;;;22.52;100.00;98812.09;15273821;19;20022;-66
2023/06/25 08:46:20;;;;;;;1.60;1.30;;;;;;;22.66;100.00;98797.09;15280995;19;20014;-66
2023/06/25 08:51:45;;;;;;;1.13;1.10;;;;;;;22.78;100.00;98800.75;15273954;19;20013;-61
2023/06/25 08:57:10;;;;;;;1.48;1.20;;;;;;;22.98;100.00;98796.91;15278551;19;20022;-69
2023/06/25 09:02:38;;;;;;;1.33;1.20;;;;;;;23.10;100.00;98791.44;15274472;19;20026;-70
2023/06/25 09:08:10;;;;;;;1.75;1.10;;;;;;;23.24;100.00;98778.34;15275543;19;20014;-68
2023/06/25 09:13:35;;;;;;;1.30;1.20;;;;;;;23.43;100.00;98767.28;15276892;19;20018;-65
2023/06/25 09:19:02;;;;;;;1.85;1.13;;;;;;;23.65;100.00;98770.28;15272675;19;20014;-64
2023/06/25 09:24:27;;;;;;;2.83;1.00;;;;;;;23.80;100.00;98761.56;15273928;19;20022;-61
2023/06/25 09:29:58;;;;;;;1.10;1.10;;;;;;;23.90;100.00;98761.78;15272514;19;20776;-62
2023/06/25 09:35:29;;;;;;;;;;;;;;;24.05;100.00;98758.56;15276738;19;20018;-63
2023/06/25 09:40:54;;;;;;;1.73;1.30;;;;;;;24.17;100.00;98755.78;15271498;19;19918;-64
2023/06/25 09:46:22;;;;;;;2.72;1.05;;;;;;;24.33;100.00;98756.13;15275352;19;20352;-67
2023/06/25 09:51:57;;;;;;;2.05;1.20;;;;;;;24.55;100.00;98751.63;15276005;19;20017;-67
2023/06/25 09:57:23;;;;;;;1.50;1.10;;;;;;;24.75;100.00;98753.16;15272769;19;20082;-66
2023/06/25 10:02:49;;;;;;;1.00;0.90;;;;;;;25.03;100.00;98743.16;15273912;19;20014;-65
2023/06/25 10:08:18;;;;;;;1.00;1.00;;;;;;;25.23;100.00;98742.69;15272853;19;20007;-65
2023/06/25 10:13:48;;;;;;;0.97;0.97;;;;;;;25.43;100.00;98733.09;15273728;19;20405;-57
2023/06/25 10:19:22;;;;;;;1.33;0.90;;;;;;;25.59;100.00;98729.53;15271328;19;20017;-57
2023/06/25 10:24:52;;;;;;;1.20;1.00;;;;;;;25.87;100.00;98726.88;15275055;19;20031;-59
2023/06/25 10:30:24;;;;;;;1.90;1.00;;;;;;;26.05;100.00;98723.81;15284193;19;20039;-59
2023/06/25 10:35:50;;;;;;;1.63;1.10;;;;;;;26.23;99.43;98724.63;15275007;19;20086;-59
2023/06/25 10:41:17;;;;;;;1.33;0.85;;;;;;;26.44;100.00;98709.97;15263959;19;20086;-59
2023/06/25 10:46:42;;;;;;;2.85;1.00;;;;;;;26.56;92.55;98711.75;15274288;19;20022;-59
2023/06/25 10:52:07;;;;;;;1.17;0.80;;;;;;;26.59;93.57;98706.53;15268728;19;20019;-59
2023/06/25 10:57:35;;;;;;;3.17;0.90;;;;;;;26.65;83.37;98704.66;15271413;19;20021;-59
2023/06/25 11:03:01;;;;;;;0.80;0.80;;;;;;;26.68;89.87;98698.63;15267654;19;20018;-59
2023/06/25 11:08:27;;;;;;;3.72;0.80;;;;;;;26.91;85.25;98691.13;15268818;19;20020;-59
2023/06/25 11:13:56;;;;;;;0.80;0.80;;;;;;;27.20;87.08;98685.31;15265193;19;20019;-56
2023/06/25 11:19:22;;;;;;;0.80;0.80;;;;;;;27.43;87.59;98691.56;15268588;19;20008;-58
2023/06/25 11:24:47;;;;;;;0.90;0.80;;;;;;;27.50;83.09;98686.66;15266265;19;20014;-56
2023/06/25 11:30:15;;;;;;;2.22;0.82;;;;;;;27.48;80.81;98675.84;15261217;19;20022;-57
2023/06/25 11:35:40;;;;;;;3.60;0.88;;;;;;;27.69;90.31;98668.50;15264620;19;20073;-57
2023/06/25 11:41:08;;;;;;;0.93;0.90;;;;;;;27.82;74.37;98660.81;15263066;19;20090;-56
2023/06/25 11:46:36;;;;;;;1.65;0.70;;;;;;;27.99;79.94;98658.69;15267101;19;20086;-54
2023/06/25 11:52:01;;;;;;;6.97;0.75;;;;;;;28.24;74.85;98648.84;15266040;19;20029;-58
2023/06/25 11:57:27;;;;;;;1.02;0.80;;;;;;;28.44;79.27;98642.53;15278529;19;20010;-57
2023/06/25 12:02:54;;;;;;;1.40;0.80;;;;;;;28.47;64.19;98640.28;15281143;19;20038;-59
2023/06/25 12:08:19;;;;;;;0.73;0.73;;;;;;;28.26;67.75;98631.94;15277390;19;20018;-57
2023/06/25 12:13:44;;;;;;;1.48;0.80;;;;;;;28.43;67.39;98637.25;15275776;19;20014;-57
2023/06/25 12:19:11;;;;;;;2.72;0.70;;;;;;;28.74;69.84;98631.78;15277269;19;20041;-59
2023/06/25 12:24:36;;;;;;;2.13;0.88;;;;;;;29.00;68.69;98617.91;15279741;19;20601;-58
2023/06/25 12:30:00;;;;;;;2.58;0.70;;;;;;;29.26;69.24;98615.13;15276413;19;20031;-59
2023/06/25 12:35:28;;;;;;;1.15;0.70;;;;;;;29.37;61.71;98605.69;15279682;19;20010;-59
2023/06/25 12:40:56;;;;;;;1.50;0.80;;;;;;;29.40;68.10;98605.13;15274805;19;20015;-56
2023/06/25 12:46:22;;;;;;;0.70;0.70;;;;;;;29.48;60.65;98600.97;15280534;19;20023;-57
2023/06/25 12:51:49;;;;;;;1.05;0.88;;;;;;;29.50;61.00;98599.56;15278085;19;20014;-61
2023/06/25 12:57:14;;;;;;;5.00;0.85;;;;;;;29.69;64.55;98585.06;15278821;19;20014;-57
2023/06/25 13:02:40;;;;;;;1.55;0.70;;;;;;;30.02;64.46;98593.84;15277398;19;20018;-63
2023/06/25 13:08:07;;;;;;;0.70;0.70;;;;;;;30.16;61.72;98593.22;15273466;19;20073;-57
2023/06/25 13:13:32;;;;;;;2.75;0.80;;;;;;;30.02;62.29;98588.28;15274516;19;20082;-58
2023/06/25 13:18:57;;;;;;;0.70;0.70;;;;;;;30.08;57.14;98580.75;15274888;19;20011;-58
2023/06/25 13:24:24;;;;;;;0.68;0.60;;;;;;;30.07;62.22;98582.69;15275897;19;20054;-56
2023/06/25 13:29:49;;;;;;;3.67;0.80;;;;;;;30.58;62.29;98572.38;15271125;19;20025;-55
2023/06/25 13:35:14;;;;;;;2.47;0.68;;;;;;;31.07;62.16;98561.38;15276160;19;20082;-57
2023/06/25 13:40:41;;;;;;;0.95;0.60;;;;;;;31.35;55.41;98568.06;15267755;19;20675;-57
2023/06/25 13:46:06;;;;;;;1.27;0.52;;;;;;;31.58;58.36;98557.22;15275650;19;20027;-57
2023/06/25 13:51:31;;;;;;;1.20;0.73;;;;;;;31.66;54.73;98557.41;15273179;19;20018;-57
2023/06/25 13:56:58;;;;;;;0.75;0.75;;;;;;;31.83;54.98;98550.53;15275072;19;20025;-57
2023/06/25 14:02:24;;;;;;;1.15;0.85;;;;;;;32.03;52.57;98557.78;15271381;19;20037;-57
2023/06/25 14:07:52;;;;;;;3.45;0.70;;;;;;;31.96;54.73;98548.97;15274585;19;20021;-55
2023/06/25 14:13:22;;;;;;;2.70;0.80;;;;;;;32.31;52.16;98545.97;15266670;19;20020;-53
2023/06/25 14:18:46;;;;;;;0.93;0.60;;;;;;;32.47;51.79;98536.25;15272391;19;20086;-58
2023/06/25 14:24:11;;;;;;;3.47;0.68;;;;;;;32.36;50.89;98524.44;15272492;19;20024;-57
2023/06/25 14:29:38;;;;;;;2.03;0.65;;;;;;;32.75;52.49;98525.19;15270071;19;20022;-49
2023/06/25 14:35:03;;;;;;;0.70;0.70;;;;;;;32.81;48.58;98521.19;15269135;19;20010;-52
2023/06/25 14:40:27;;;;;;;2.35;0.70;;;;;;;33.09;53.09;98517.63;15268885;19;20348;-49
2023/06/25 14:45:54;;;;;;;0.93;0.60;;;;;;;33.28;48.71;98512.78;15268262;19;20013;-53
2023/06/25 14:51:19;;;;;;;1.63;0.70;;;;;;;33.39;50.74;98516.22;15266483;19;20703;-52
2023/06/25 14:56:44;;;;;;;3.03;0.50;;;;;;;33.53;49.30;98509.81;15268007;19;20106;-50
2023/06/25 15:02:11;;;;;;;0.60;0.60;;;;;;;33.69;49.04;98511.16;15267338;19;20033;-51
2023/06/25 15:07:37;;;;;;;2.00;0.60;;;;;;;33.75;45.71;98506.28;15268478;19;20017;-54
2023/06/25 15:13:01;;;;;;;2.55;0.70;;;;;;;33.92;50.67;98508.44;15266317;19;20709;-54
2023/06/25 15:18:30;;;;;;;0.82;0.60;;;;;;;33.97;46.73;98502.72;15264207;19;20010;-53
2023/06/25 15:23:54;;;;;;;3.25;0.70;;;;;;;34.00;47.81;98490.91;15265141;19;20007;-54
2023/06/25 15:29:19;;;;;;;1.00;0.55;;;;;;;34.20;46.76;98497.16;15263831;19;20020;-55
2023/06/25 15:34:46;;;;;;;0.73;0.50;;;;;;;33.87;46.41;98488.94;15259521;19;20029;-54
2023/06/25 15:40:12;;;;;;;0.60;0.57;;;;;;;33.74;45.86;98479.47;15259565;19;20014;-52
2023/06/25 15:45:39;;;;;;;2.05;0.55;;;;;;;33.76;45.51;98478.00;15262831;19;20525;-54
2023/06/25 15:51:06;;;;;;;1.92;0.70;;;;;;;33.86;44.61;98467.72;15256911;19;20021;-53
2023/06/25 15:56:34;;;;;;;3.17;0.60;;;;;;;33.86;46.59;98462.13;15261573;19;20098;-54
2023/06/25 16:02:00;;;;;;;0.60;0.50;;;;;;;34.00;45.63;98457.38;15264023;19;20010;-54
2023/06/25 16:07:27;;;;;;;0.60;0.60;;;;;;;34.14;47.16;98462.09;15266210;19;20025;-52
2023/06/25 16:12:52;;;;;;;2.83;0.52;;;;;;;34.20;44.86;98449.63;15263050;19;20028;-55
2023/06/25 16:18:16;;;;;;;0.40;0.40;;;;;;;34.32;46.67;98452.66;15265734;19;20050;-55
2023/06/25 16:23:43;;;;;;;1.17;0.70;;;;;;;33.96;44.09;98450.75;15262402;19;20483;-54
2023/06/25 16:29:08;;;;;;;1.52;0.60;;;;;;;33.86;45.90;98439.78;15262941;19;20018;-54
2023/06/25 16:34:39;;;;;;;0.38;0.38;;;;;;;33.73;44.38;98442.31;15260874;19;20018;-55
2023/06/25 16:40:07;;;;;;;3.78;0.50;;;;;;;33.68;44.57;98431.28;15267694;19;20468;-55
2023/06/25 16:45:31;;;;;;;0.52;0.40;;;;;;;33.70;46.18;98423.38;15279331;19;20018;-51
2023/06/25 16:50:56;;;;;;;0.50;0.50;;;;;;;33.66;44.43;98430.75;15273601;19;20010;-52
2023/06/25 16:56:23;;;;;;;2.08;0.50;;;;;;;33.57;44.77;98422.28;15272583;19;20086;-52
2023/06/25 17:01:52;;;;;;;1.52;0.63;;;;;;;33.46;44.07;98426.44;15277177;19;20014;-54
2023/06/25 17:07:16;;;;;;;0.90;0.60;;;;;;;33.35;45.35;98420.25;15275905;19;20113;-53
2023/06/25 17:12:44;;;;;;;0.88;0.57;;;;;;;33.36;44.09;98419.09;15273144;19;20081;-54
2023/06/25 17:18:10;;;;;;;0.73;0.50;;;;;;;33.48;46.06;98407.41;15276861;19;20020;-54
2023/06/25 17:23:35;;;;;;;0.90;0.60;;;;;;;33.36;44.87;98407.13;15277382;19;20021;-49
2023/06/25 17:29:03;;;;;;;0.45;0.45;;;;;;;33.34;46.36;98413.84;15266230;19;20399;-51
2023/06/25 17:34:34;;;;;;;0.55;0.45;;;;;;;33.37;45.55;98406.81;15271497;19;20015;-50
2023/06/25 17:39:59;;;;;;;0.95;0.50;;;;;;;33.17;44.91;98410.81;15274013;19;20029;-54
2023/06/25 17:45:26;;;;;;;0.35;0.35;;;;;;;33.11;46.59;98415.69;15275011;19;20018;-54
2023/06/25 17:50:52;;;;;;;1.27;0.60;;;;;;;33.04;47.42;98418.09;15270341;19;20010;-51
2023/06/25 17:56:18;;;;;;;2.15;0.60;;;;;;;32.84;47.69;98411.78;15274889;19;20014;-53
2023/06/25 18:01:46;;;;;;;0.40;0.40;;;;;;;32.56;47.85;98416.47;15272183;19;20014;-53
2023/06/25 18:07:13;;;;;;;0.40;0.40;;;;;;;32.31;49.14;98409.38;15277125;19;20040;-51
2023/06/25 18:12:39;;;;;;;1.02;0.50;;;;;;;31.91;49.50;98405.00;15272186;19;20029;-48
2023/06/25 18:18:06;;;;;;;1.30;0.50;;;;;;;31.40;50.87;98411.28;15272624;19;20022;-48
2023/06/25 18:23:31;;;;;;;3.40;0.70;;;;;;;30.79;52.16;98402.56;15271144;19;20015;-53
2023/06/25 18:28:55;;;;;;;2.40;0.70;;;;;;;30.31;53.46;98406.09;15272326;19;20019;-53
2023/06/25 18:34:29;;;;;;;1.02;0.50;;;;;;;29.87;53.84;98402.25;15266254;19;20029;-52
2023/06/25 18:39:54;;;;;;;0.80;0.57;;;;;;;29.46;54.30;98390.28;15266072;19;20039;-54
2023/06/25 18:45:19;;;;;;;0.63;0.60;;;;;;;28.97;56.50;98386.34;15270012;19;20022;-56
2023/06/25 18:50:47;;;;;;;0.82;0.60;;;;;;;28.54;57.06;98392.25;15266367;19;20471;-54
2023/06/25 18:56:12;;;;;;;1.08;0.60;;;;;;;28.25;58.92;98387.34;15265720;19;20018;-51
2023/06/25 19:01:37;;;;;;;0.70;0.68;;;;;;;27.87;61.11;98394.25;15264133;19;20014;-53
2023/06/25 19:07:04;;;;;;;0.70;0.70;;;;;;;27.48;62.73;98388.09;15263898;19;20010;-53
2023/06/25 19:12:30;;;;;;;0.60;0.60;;;;;;;27.19;64.13;98390.47;15242515;19;20098;-51
2023/06/25 19:17:54;;;;;;;0.70;0.70;;;;;;;26.89;66.88;98392.00;15267903;19;20030;-55
2023/06/25 19:23:22;;;;;;;1.83;0.82;;;;;;;26.61;69.75;98402.34;15264788;19;20013;-53
2023/06/25 19:28:47;;;;;;;0.75;0.70;;;;;;;26.37;72.12;98393.63;15262956;19;20440;-50
2023/06/25 19:34:20;;;;;;;1.27;0.80;;;;;;;26.17;75.54;98402.59;15265661;19;20018;-53
2023/06/25 19:39:49;;;;;;;2.38;0.70;;;;;;;25.74;82.72;98394.19;15269085;19;20007;-54
2023/06/25 19:45:14;;;;;;;1.17;0.70;;;;;;;25.51;85.88;98393.44;15269800;19;20038;-51
2023/06/25 19:50:39;;;;;;;1.63;0.73;;;;;;;25.18;91.05;98397.97;15265409;19;20030;-54
2023/06/25 19:56:07;;;;;;;1.48;0.90;;;;;;;25.03;91.28;98401.38;15267205;19;20355;-54
2023/06/25 20:01:32;;;;;;;1.40;0.80;;;;;;;24.76;94.77;98399.38;15266866;19;20035;-52
2023/06/25 20:06:56;;;;;;;0.80;0.80;;;;;;;24.51;98.15;98397.09;15264167;19;20066;-51
2023/06/25 20:12:28;;;;;;;2.92;0.90;;;;;;;24.30;100.00;98402.28;15268743;19;20507;-52
2023/06/25 20:17:53;;;;;;;3.40;0.98;;;;;;;24.12;100.00;98395.13;15282650;19;20023;-55
2023/06/25 20:23:18;;;;;;;1.42;0.80;;;;;;;24.01;100.00;98396.88;15285131;19;20031;-54
2023/06/25 20:28:47;;;;;;;0.95;0.95;;;;;;;23.92;100.00;98401.94;15278353;19;20094;-54
2023/06/25 20:34:22;;;;;;;2.00;0.93;;;;;;;23.67;100.00;98400.41;15278726;19;20082;-56
2023/06/25 20:39:47;;;;;;;0.93;0.80;;;;;;;23.45;100.00;98393.94;15276596;19;20025;-56
2023/06/25 20:45:15;;;;;;;1.20;0.90;;;;;;;23.37;100.00;98401.50;15283386;19;20363;-50
2023/06/25 20:50:40;;;;;;;1.67;0.90;;;;;;;23.28;100.00;98402.16;15277184;19;20014;-55
2023/06/25 20:56:04;;;;;;;0.90;0.90;;;;;;;23.14;100.00;98398.81;15277764;19;20507;-56
2023/06/25 21:01:32;;;;;;;0.80;0.80;;;;;;;23.08;100.00;98397.88;15279275;19;20017;-55
2023/06/25 21:06:56;;;;;;;1.42;0.98;;;;;;;22.99;100.00;98402.91;15280574;19;20082;-54
2023/06/25 21:12:21;;;;;;;0.90;0.90;;;;;;;22.94;100.00;98409.13;15277796;19;20017;-52
2023/06/25 21:17:48;;;;;;;0.90;0.90;;;;;;;22.88;100.00;98409.25;15280047;19;20023;-53
2023/06/25 21:23:13;;;;;;;0.80;0.80;;;;;;;22.75;100.00;98411.22;15279248;19;20431;-52
2023/06/25 21:28:37;;;;;;;1.00;0.90;;;;;;;22.68;100.00;98405.00;15276728;19;20014;-54
2023/06/25 21:34:11;;;;;;;1.42;0.80;;;;;;;22.58;100.00;98405.59;15275843;19;20363;-53
2023/06/25 21:39:36;;;;;;;0.85;0.85;;;;;;;22.46;100.00;98405.63;15275927;19;20417;-54
2023/06/25 21:45:01;;;;;;;0.95;0.70;;;;;;;22.35;100.00;98403.69;15275097;19;20546;-56
2023/06/25 21:50:29;;;;;;;0.95;0.90;;;;;;;22.24;100.00;98413.56;15276977;19;20017;-53
2023/06/25 21:55:55;;;;;;;1.33;1.00;;;;;;;22.14;100.00;98405.94;15274742;19;20028;-54
2023/06/25 22:01:20;;;;;;;1.08;0.90;;;;;;;22.01;100.00;98407.00;15273370;19;20014;-52
2023/06/25 22:06:48;;;;;;;0.90;0.90;;;;;;;21.91;100.00;98405.91;15276964;19;20027;-51
2023/06/25 22:12:13;;;;;;;2.95;0.98;;;;;;;21.79;100.00;98401.25;15276022;19;20579;-52
2023/06/25 22:17:37;;;;;;;1.65;0.90;;;;;;;21.73;100.00;98404.91;15273232;19;20018;-51
2023/06/25 22:23:05;;;;;;;1.20;1.00;;;;;;;21.64;100.00;98400.84;15274279;19;20569;-55
2023/06/25 22:28:29;;;;;;;1.52;1.20;;;;;;;21.58;100.00;98399.84;15274804;19;20094;-51
2023/06/25 22:34:00;;;;;;;0.93;0.93;;;;;;;21.48;100.00;98396.84;15271900;19;20019;-49
2023/06/25 22:39:28;;;;;;;1.00;1.00;;;;;;;21.37;100.00;98399.28;15273309;19;20015;-52
2023/06/25 22:44:53;;;;;;;1.10;1.00;;;;;;;21.32;100.00;98387.34;15275389;19;20495;-55
2023/06/25 22:50:18;;;;;;;1.00;0.90;;;;;;;21.25;100.00;98384.72;15267545;19;20011;-49
2023/06/25 22:55:45;;;;;;;1.25;1.00;;;;;;;21.19;100.00;98378.25;15270015;19;20520;-52
2023/06/25 23:01:13;;;;;;;1.25;0.93;;;;;;;21.17;100.00;98380.38;15270710;19;20015;-49
2023/06/25 23:06:37;;;;;;;0.90;0.90;;;;;;;21.12;100.00;98377.50;15273538;19;20034;-48
2023/06/25 23:12:05;;;;;;;1.20;1.10;;;;;;;21.09;100.00;98378.78;15267647;19;20034;-49
2023/06/25 23:17:30;;;;;;;1.58;1.10;;;;;;;21.03;100.00;98370.66;15271407;19;20018;-49
2023/06/25 23:22:55;;;;;;;0.90;0.90;;;;;;;21.02;100.00;98360.78;15269012;19;20018;-52
2023/06/25 23:28:26;;;;;;;1.20;1.10;;;;;;;21.00;100.00;98361.00;15271654;19;20018;-53
2023/06/25 23:33:58;;;;;;;1.23;1.10;;;;;;;20.97;100.00;98363.38;15268952;19;20078;-53
2023/06/25 23:39:23;;;;;;;1.50;1.05;;;;;;;20.90;100.00;98353.34;15264017;19;20542;-54
2023/06/25 23:44:51;;;;;;;1.48;1.00;;;;;;;20.86;100.00;98351.28;15272599;19;20038;-53
2023/06/25 23:50:16;;;;;;;2.15;1.00;;;;;;;20.81;100.00;98348.44;15277399;19;20370;-53
2023/06/25 23:55:41;;;;;;;1.10;1.10;;;;;;;20.76;100.00;98349.94;15279625;19;20498;-51
